Time;durP1;ratioP1;P1;durP2;ratioP2;P2;SDS_P1;SDS_P2;PMS_P1;PMS_P2;Temp;Humidity;BMP_temperature;BMP_pressure;BME280_temperature;BME280_humidity;BME280_pressure;Samples;Min_cycle;Max_cycle;Signal;HPM_P1;HPM_P2
2020/12/31 00:01:10;;;;;;;;;;;16.50;67.70;;;;;;4228529;28;20022;-40
2020/12/31 00:03:31;;;;;;;;;;;16.50;68.00;;;;;;4230301;28;19988;-41
2020/12/31 00:05:52;;;;;;;;;;;16.50;68.10;;;;;;4230387;28;19927;-40
2020/12/31 00:08:12;;;;;;;;;;;16.40;68.00;;;;;;4229550;28;19955;-40
2020/12/31 00:10:33;;;;;;;;;;;16.40;68.20;;;;;;4229629;28;19924;-40
2020/12/31 00:12:55;;;;;;;;;;;16.40;68.60;;;;;;4229737;28;19930;-41
2020/12/31 00:15:16;;;;;;;;;;;16.30;68.70;;;;;;4230036;28;19970;-40
2020/12/31 00:17:37;;;;;;;;;;;16.30;68.40;;;;;;4229147;28;19930;-41
2020/12/31 00:19:57;;;;;;;;;;;16.50;68.10;;;;;;4230306;27;19924;-41
2020/12/31 00:22:18;;;;;;;;;;;16.60;67.30;;;;;;4230262;28;20331;-41
2020/12/31 00:24:39;;;;;;;;;;;16.70;66.80;;;;;;4230267;28;19927;-40
2020/12/31 00:27:00;;;;;;;;;;;16.70;66.70;;;;;;4212165;28;19967;-40
2020/12/31 00:29:21;;;;;;;;;;;16.70;66.80;;;;;;4212712;28;19943;-40
2020/12/31 00:31:42;;;;;;;;;;;16.70;66.70;;;;;;4212791;28;20397;-40
2020/12/31 00:34:03;;;;;;;;;;;16.80;66.20;;;;;;4213240;28;19949;-40
2020/12/31 00:36:24;;;;;;;;;;;17.00;65.20;;;;;;4227054;28;20015;-40
2020/12/31 00:38:44;;;;;;;;;;;17.10;64.80;;;;;;4229548;28;20312;-40
2020/12/31 00:41:05;;;;;;;;;;;17.10;64.70;;;;;;4229453;28;20026;-40
2020/12/31 00:43:26;;;;;;;;;;;17.10;64.60;;;;;;4229928;28;20518;-41
2020/12/31 00:45:48;;;;;;;;;;;17.30;63.90;;;;;;4229172;28;20007;-40
2020/12/31 00:48:08;;;;;;;;;;;17.50;63.10;;;;;;4229224;28;19927;-41
2020/12/31 00:50:29;;;;;;;;;;;17.50;62.80;;;;;;4228188;28;19923;-41
2020/12/31 00:52:50;;;;;;;;;;;17.40;62.70;;;;;;4229837;28;19926;-40
2020/12/31 00:55:11;;;;;;;;;;;17.40;63.10;;;;;;4228106;28;19920;-40
2020/12/31 00:57:32;;;;;;;;;;;17.30;63.60;;;;;;4228153;28;19924;-42
2020/12/31 00:59:53;;;;;;;;;;;17.10;64.00;;;;;;4229821;28;20341;-41
2020/12/31 01:02:16;;;;;;;;;;;17.00;64.60;;;;;;4228302;28;20289;-41
2020/12/31 01:04:36;;;;;;;;;;;16.90;65.20;;;;;;4229742;28;19936;-40
2020/12/31 01:06:57;;;;;;;;;;;16.90;65.30;;;;;;4212453;28;20609;-40
2020/12/31 01:09:18;;;;;;;;;;;17.00;64.80;;;;;;4212632;28;19927;-42
2020/12/31 01:11:40;;;;;;;;;;;17.20;64.00;;;;;;4212843;28;20045;-40
2020/12/31 01:14:01;;;;;;;;;;;17.30;63.50;;;;;;4212193;28;19931;-40
2020/12/31 01:16:22;;;;;;;;;;;17.30;63.30;;;;;;4226752;28;19931;-40
2020/12/31 01:18:44;;;;;;;;;;;17.30;63.40;;;;;;4229600;28;19919;-41
2020/12/31 01:21:08;;;;;;;;;;;17.30;63.50;;;;;;4229595;28;19965;-40
2020/12/31 01:23:29;;;;;;;;;;;17.20;63.80;;;;;;4229766;28;19923;-40
2020/12/31 01:25:50;;;;;;;;;;;17.20;64.00;;;;;;4229549;28;19923;-40
2020/12/31 01:28:11;;;;;;;;;;;17.30;63.70;;;;;;4229777;28;20010;-40
2020/12/31 01:30:32;;;;;;;;;;;17.30;63.40;;;;;;4229189;28;20339;-41
2020/12/31 01:32:53;;;;;;;;;;;17.30;63.40;;;;;;4229180;28;20408;-40
2020/12/31 01:35:14;;;;;;;;;;;17.30;63.50;;;;;;4228903;28;19919;-40
2020/12/31 01:37:35;;;;;;;;;;;17.30;63.70;;;;;;4229475;28;20335;-40
2020/12/31 01:39:55;;;;;;;;;;;17.20;64.10;;;;;;4229429;28;19923;-41
2020/12/31 01:42:16;;;;;;;;;;;17.10;64.40;;;;;;4229593;28;19996;-40
2020/12/31 01:44:37;;;;;;;;;;;17.10;64.40;;;;;;4231889;28;19923;-40
2020/12/31 01:47:00;;;;;;;;;;;17.30;63.80;;;;;;4232005;28;20033;-40
2020/12/31 01:49:21;;;;;;;;;;;17.40;63.20;;;;;;4232214;28;19981;-40
2020/12/31 01:51:45;;;;;;;;;;;17.50;62.90;;;;;;4231478;28;20442;-40
2020/12/31 01:54:06;;;;;;;;;;;17.40;63.10;;;;;;4232291;28;19929;-41
2020/12/31 01:56:27;;;;;;;;;;;17.40;63.10;;;;;;4215142;28;19928;-41
2020/12/31 01:58:48;;;;;;;;;;;17.30;63.50;;;;;;4215299;28;19924;-40
2020/12/31 02:01:08;;;;;;;;;;;17.20;64.00;;;;;;4215572;28;20022;-40
2020/12/31 02:03:29;;;;;;;;;;;17.10;64.40;;;;;;4214989;28;19924;-40
2020/12/31 02:05:50;;;;;;;;;;;17.10;64.10;;;;;;4231414;28;19924;-41
2020/12/31 02:08:12;;;;;;;;;;;17.20;63.70;;;;;;4231224;27;19966;-40
2020/12/31 02:10:33;;;;;;;;;;;17.20;63.50;;;;;;4231777;28;19930;-40
2020/12/31 02:12:54;;;;;;;;;;;17.20;63.70;;;;;;4231831;28;20352;-40
2020/12/31 02:15:15;;;;;;;;;;;17.10;64.10;;;;;;4231536;28;20382;-40
2020/12/31 02:17:36;;;;;;;;;;;17.00;64.50;;;;;;4231693;27;19930;-40
2020/12/31 02:19:57;;;;;;;;;;;16.80;64.90;;;;;;4231573;28;20339;-40
2020/12/31 02:22:18;;;;;;;;;;;16.80;65.50;;;;;;4231521;28;19963;-40
2020/12/31 02:24:38;;;;;;;;;;;16.90;65.10;;;;;;4230855;28;20288;-40
2020/12/31 02:27:00;;;;;;;;;;;17.20;64.10;;;;;;4231696;28;19934;-40
2020/12/31 02:29:21;;;;;;;;;;;17.40;63.10;;;;;;4231914;28;20361;-40
2020/12/31 02:31:42;;;;;;;;;;;17.50;62.70;;;;;;4231669;28;19924;-40
2020/12/31 02:34:04;;;;;;;;;;;17.50;62.50;;;;;;4231146;28;19973;-39
2020/12/31 02:36:25;;;;;;;;;;;17.50;62.60;;;;;;4231183;28;19927;-40
2020/12/31 02:38:46;;;;;;;;;;;17.50;62.50;;;;;;4231205;28;19988;-40
2020/12/31 02:41:07;;;;;;;;;;;17.40;63.50;;;;;;4231150;28;19919;-40
2020/12/31 02:43:28;;;;;;;;;;;17.30;62.90;;;;;;4231012;28;19923;-40
2020/12/31 02:45:49;;;;;;;;;;;17.30;63.20;;;;;;4231407;28;20389;-41
2020/12/31 02:48:10;;;;;;;;;;;17.10;63.80;;;;;;4231264;28;19923;-40
2020/12/31 02:50:30;;;;;;;;;;;17.00;64.20;;;;;;4214120;28;19920;-40
2020/12/31 02:52:51;;;;;;;;;;;17.00;64.30;;;;;;4214188;28;20019;-40
2020/12/31 02:55:13;;;;;;;;;;;17.20;63.80;;;;;;4229579;28;19958;-40
2020/12/31 02:57:34;;;;;;;;;;;17.30;63.20;;;;;;4231027;28;19930;-40
2020/12/31 02:59:54;;;;;;;;;;;17.30;63.20;;;;;;4231218;28;19929;-40
2020/12/31 03:02:15;;;;;;;;;;;17.30;63.30;;;;;;4231271;28;19923;-40
2020/12/31 03:04:37;;;;;;;;;;;17.30;63.30;;;;;;4230670;28;19923;-40
2020/12/31 03:06:57;;;;;;;;;;;17.40;62.90;;;;;;4231118;28;19923;-40
2020/12/31 03:09:18;;;;;;;;;;;17.40;62.50;;;;;;4230737;28;20016;-41
2020/12/31 03:11:40;;;;;;;;;;;17.40;62.80;;;;;;4230631;28;19923;-40
2020/12/31 03:14:01;;;;;;;;;;;17.30;63.10;;;;;;4230800;28;20637;-40
2020/12/31 03:16:22;;;;;;;;;;;17.20;63.40;;;;;;4230374;28;19924;-40
2020/12/31 03:18:42;;;;;;;;;;;17.30;63.00;;;;;;4230219;28;19919;-40
2020/12/31 03:21:03;;;;;;;;;;;17.60;62.30;;;;;;4230509;28;20022;-40
2020/12/31 03:23:24;;;;;;;;;;;17.60;62.10;;;;;;4230910;28;20458;-40
2020/12/31 03:25:45;;;;;;;;;;;17.60;62.10;;;;;;4230593;28;20031;-40
2020/12/31 03:28:07;;;;;;;;;;;17.50;62.30;;;;;;4230512;28;20361;-41
2020/12/31 03:30:28;;;;;;;;;;;17.40;62.60;;;;;;4230717;28;19989;-40
2020/12/31 03:32:49;;;;;;;;;;;17.50;62.40;;;;;;4230815;28;20389;-40
2020/12/31 03:35:10;;;;;;;;;;;17.60;62.20;;;;;;4230170;28;20385;-40
2020/12/31 03:37:30;;;;;;;;;;;17.50;62.10;;;;;;4230373;28;19931;-40
2020/12/31 03:39:51;;;;;;;;;;;17.50;62.40;;;;;;4213959;28;19981;-41
2020/12/31 03:42:12;;;;;;;;;;;17.30;62.70;;;;;;4213487;28;20015;-41
2020/12/31 03:44:33;;;;;;;;;;;17.30;63.10;;;;;;4213414;28;20470;-40
2020/12/31 03:46:54;;;;;;;;;;;17.30;63.00;;;;;;4213468;28;19924;-40
2020/12/31 03:49:14;;;;;;;;;;;17.50;62.60;;;;;;4213712;28;20034;-40
2020/12/31 03:51:35;;;;;;;;;;;17.60;62.10;;;;;;4220242;28;19923;-40
2020/12/31 03:53:56;;;;;;;;;;;17.50;62.00;;;;;;4230572;28;20381;-41
2020/12/31 03:56:18;;;;;;;;;;;17.50;62.40;;;;;;4229689;28;20023;-40
2020/12/31 03:58:39;;;;;;;;;;;17.30;62.80;;;;;;4230028;28;19984;-40
2020/12/31 04:01:01;;;;;;;;;;;17.20;63.30;;;;;;4230328;28;20560;-40
2020/12/31 04:03:21;;;;;;;;;;;17.10;63.80;;;;;;4230529;28;19962;-40
2020/12/31 04:05:42;;;;;;;;;;;17.20;63.50;;;;;;4229945;28;19930;-41
2020/12/31 04:08:03;;;;;;;;;;;17.40;62.80;;;;;;4229728;28;19924;-40
2020/12/31 04:10:23;;;;;;;;;;;17.50;62.50;;;;;;4229803;28;19967;-40
2020/12/31 04:12:44;;;;;;;;;;;17.50;62.30;;;;;;4230372;28;20041;-40
2020/12/31 04:15:05;;;;;;;;;;;17.50;62.40;;;;;;4229484;28;19973;-41
2020/12/31 04:17:26;;;;;;;;;;;17.50;62.30;;;;;;4229722;28;19930;-41
2020/12/31 04:19:47;;;;;;;;;;;17.50;62.40;;;;;;4213352;28;20014;-40
2020/12/31 04:22:08;;;;;;;;;;;17.30;62.60;;;;;;4212983;28;19924;-40
2020/12/31 04:24:29;;;;;;;;;;;17.30;62.90;;;;;;4228815;28;20062;-40
2020/12/31 04:26:49;;;;;;;;;;;17.30;63.80;;;;;;4229685;28;20317;-40
2020/12/31 04:29:10;;;;;;;;;;;17.30;62.80;;;;;;4229721;28;19928;-41
2020/12/31 04:31:31;;;;;;;;;;;17.30;62.80;;;;;;4229536;28;19930;-40
2020/12/31 04:33:52;;;;;;;;;;;17.20;62.90;;;;;;4230128;28;19927;-40
2020/12/31 04:36:13;;;;;;;;;;;17.20;63.30;;;;;;4229618;28;19977;-41
2020/12/31 04:38:34;;;;;;;;;;;17.00;64.50;;;;;;4229319;28;19927;-40
2020/12/31 04:40:55;;;;;;;;;;;17.00;64.20;;;;;;4229503;28;20263;-40
2020/12/31 04:43:16;;;;;;;;;;;16.80;64.80;;;;;;4229553;28;19964;-40
2020/12/31 04:45:38;;;;;;;;;;;16.70;65.20;;;;;;4228021;28;20025;-40
2020/12/31 04:48:06;;;;;;;;;;;16.80;65.20;;;;;;4225558;28;19924;-41
2020/12/31 04:50:32;;;;;;;;;;;16.80;65.10;;;;;;4229302;28;19928;-40
2020/12/31 04:52:53;;;;;;;;;;;16.70;65.20;;;;;;4229328;28;19932;-40
2020/12/31 04:55:14;;;;;;;;;;;16.60;65.50;;;;;;4230055;28;20516;-40
2020/12/31 04:57:34;;;;;;;;;;;16.60;65.70;;;;;;4229509;28;20020;-40
2020/12/31 04:59:57;;;;;;;;;;;16.80;65.20;;;;;;4229364;28;19942;-40
2020/12/31 05:02:21;;;;;;;;;;;17.10;64.10;;;;;;4229924;28;19924;-40
2020/12/31 05:04:42;;;;;;;;;;;17.20;63.30;;;;;;4216637;28;19930;-41
2020/12/31 05:07:04;;;;;;;;;;;17.30;63.00;;;;;;4212548;28;19924;-40
2020/12/31 05:09:25;;;;;;;;;;;17.20;63.00;;;;;;4212473;28;19924;-40
2020/12/31 05:11:46;;;;;;;;;;;17.20;63.20;;;;;;4212423;28;20381;-40
2020/12/31 05:14:07;;;;;;;;;;;17.10;63.40;;;;;;4226690;28;20010;-41
2020/12/31 05:16:28;;;;;;;;;;;17.00;63.60;;;;;;4228275;28;20462;-41
2020/12/31 05:18:49;;;;;;;;;;;17.00;64.10;;;;;;4232407;28;19923;-41
2020/12/31 05:21:16;;;;;;;;;;;16.90;64.30;;;;;;4232971;28;20023;-41
2020/12/31 05:23:38;;;;;;;;;;;16.90;64.40;;;;;;4232307;28;19963;-41
2020/12/31 05:25:59;;;;;;;;;;;16.80;64.50;;;;;;4232107;28;20004;-41
2020/12/31 05:28:23;;;;;;;;;;;16.80;64.80;;;;;;4232723;28;20406;-40
2020/12/31 05:30:44;;;;;;;;;;;16.80;65.00;;;;;;4232551;28;19923;-40
2020/12/31 05:33:05;;;;;;;;;;;16.80;64.80;;;;;;4232167;28;19931;-41
2020/12/31 05:35:26;;;;;;;;;;;17.00;64.10;;;;;;4232745;28;19924;-41
2020/12/31 05:37:47;;;;;;;;;;;17.10;63.40;;;;;;4231523;28;19928;-41
2020/12/31 05:40:09;;;;;;;;;;;17.30;62.90;;;;;;4232028;28;19927;-41
2020/12/31 05:42:30;;;;;;;;;;;17.40;62.50;;;;;;4232794;28;20243;-40
2020/12/31 05:45:07;;;;;;;;;;;17.50;62.10;;;;;;4215310;28;20571;-40
2020/12/31 05:47:28;;;;;;;;;;;17.60;61.50;;;;;;4215628;28;20398;-40
2020/12/31 05:49:48;;;;;;;;;;;17.80;60.90;;;;;;4215416;28;20024;-40
2020/12/31 05:52:29;;;;;;;;;;;17.90;60.50;;;;;;4217086;28;19924;-41
2020/12/31 05:54:50;;;;;;;;;;;17.90;60.30;;;;;;4232465;28;20374;-41
2020/12/31 05:57:14;;;;;;;;;;;17.90;60.30;;;;;;4231965;28;20615;-40
2020/12/31 05:59:36;;;;;;;;;;;17.90;60.30;;;;;;4232139;28;19927;-40
2020/12/31 06:01:58;;;;;;;;;;;17.90;60.10;;;;;;4231640;28;20321;-40
2020/12/31 06:04:19;;;;;;;;;;;18.00;60.10;;;;;;4232062;28;20285;-41
2020/12/31 06:06:43;;;;;;;;;;;17.90;60.00;;;;;;4232424;28;19926;-41
2020/12/31 06:09:04;;;;;;;;;;;17.90;60.20;;;;;;4214916;28;19920;-41
2020/12/31 06:11:32;;;;;;;;;;;17.80;60.70;;;;;;4213636;28;19920;-41
2020/12/31 06:13:57;;;;;;;;;;;17.70;60.70;;;;;;4214972;28;19924;-41
2020/12/31 06:16:19;;;;;;;;;;;17.80;60.60;;;;;;4214872;28;19998;-41
2020/12/31 06:18:43;;;;;;;;;;;17.80;60.60;;;;;;4229476;28;19958;-40
2020/12/31 06:21:05;;;;;;;;;;;17.70;60.80;;;;;;4231819;28;19919;-40
2020/12/31 06:23:31;;;;;;;;;;;17.60;61.20;;;;;;4231414;28;19923;-40
2020/12/31 06:25:53;;;;;;;;;;;17.60;61.50;;;;;;4231532;28;19923;-40
2020/12/31 06:28:15;;;;;;;;;;;17.60;61.40;;;;;;4231682;28;19924;-41
2020/12/31 06:30:37;;;;;;;;;;;17.70;61.00;;;;;;4231037;28;20013;-41
2020/12/31 06:32:57;;;;;;;;;;;17.80;60.80;;;;;;4231374;28;20687;-40
2020/12/31 06:35:19;;;;;;;;;;;17.80;60.90;;;;;;4231413;28;20389;-41
2020/12/31 06:37:56;;;;;;;;;;;17.80;60.80;;;;;;4231673;28;20038;-40
2020/12/31 06:40:23;;;;;;;;;;;17.70;60.80;;;;;;4231187;28;19932;-40
2020/12/31 06:43:03;;;;;;;;;;;17.60;61.10;;;;;;4231107;28;19976;-41
2020/12/31 06:45:33;;;;;;;;;;;17.60;61.60;;;;;;4230576;28;19924;-41
2020/12/31 06:47:55;;;;;;;;;;;17.70;61.30;;;;;;4230919;27;20292;-41
2020/12/31 06:50:16;;;;;;;;;;;17.70;61.00;;;;;;4230969;28;20006;-40
2020/12/31 06:52:37;;;;;;;;;;;17.70;61.00;;;;;;4231345;28;19923;-40
2020/12/31 06:54:58;;;;;;;;;;;17.60;61.20;;;;;;4231064;27;19935;-40
2020/12/31 06:57:37;;;;;;;;;;;17.50;61.30;;;;;;4231271;28;19945;-41
2020/12/31 06:59:58;;;;;;;;;;;17.50;61.40;;;;;;4230993;27;19919;-40
2020/12/31 07:02:21;;;;;;;;;;;17.50;61.60;;;;;;4230760;28;20377;-41
2020/12/31 07:04:43;;;;;;;;;;;17.40;62.00;;;;;;4231125;28;20320;-40
2020/12/31 07:07:24;;;;;;;;;;;17.30;62.30;;;;;;4230922;28;19928;-39
2020/12/31 07:09:50;;;;;;;;;;;17.30;62.30;;;;;;4230710;28;20438;-40
2020/12/31 07:12:11;;;;;;;;;;;17.50;61.40;;;;;;4230223;28;19931;-40
2020/12/31 07:14:33;;;;;;;;;;;17.60;60.70;;;;;;4230307;28;19923;-40
2020/12/31 07:17:00;;;;;;;;;;;17.50;60.20;;;;;;4226584;28;20030;-40
2020/12/31 07:19:21;;;;;;;;;;;17.50;59.80;;;;;;4230740;28;20369;-40
2020/12/31 07:21:46;;;;;;;;;;;17.60;59.60;;;;;;4223533;27;19927;-40
2020/12/31 07:24:23;;;;;;;;;;;17.50;59.60;;;;;;4226438;28;19919;-40
2020/12/31 07:26:45;;;;;;;;;;;17.40;59.70;;;;;;4225139;28;20569;-40
2020/12/31 07:29:11;;;;;;;;;;;17.40;59.40;;;;;;4227719;28;19931;-41
2020/12/31 07:31:39;;;;;;;;;;;17.40;59.30;;;;;;4227954;28;20454;-40
2020/12/31 07:34:15;;;;;;;;;;;17.40;59.30;;;;;;4228385;28;19933;-40
2020/12/31 07:36:36;;;;;;;;;;;17.40;59.00;;;;;;4228732;28;19923;-40
2020/12/31 07:38:58;;;;;;;;;;;17.50;58.40;;;;;;4227513;28;19934;-40
2020/12/31 07:41:19;;;;;;;;;;;17.50;58.00;;;;;;4223223;28;19926;-40
2020/12/31 07:43:40;;;;;;;;;;;17.50;58.00;;;;;;4223259;28;20024;-40
2020/12/31 07:46:02;;;;;;;;;;;17.30;58.10;;;;;;4225081;28;20026;-40
2020/12/31 07:48:23;;;;;;;;;;;17.20;58.20;;;;;;4227030;28;19936;-40
2020/12/31 07:50:44;;;;;;;;;;;17.10;58.30;;;;;;4223858;28;19920;-40
2020/12/31 07:53:04;;;;;;;;;;;17.10;58.20;;;;;;4228925;28;20029;-40
2020/12/31 07:55:27;;;;;;;;;;;17.10;58.80;;;;;;4225446;28;20438;-40
2020/12/31 07:57:48;;;;;;;;;;;17.00;58.40;;;;;;4223544;28;19924;-41
2020/12/31 08:00:12;;;;;;;;;;;16.90;58.10;;;;;;4224648;28;19924;-40
2020/12/31 08:02:33;;;;;;;;;;;16.80;58.60;;;;;;4227915;28;19930;-40
2020/12/31 08:04:54;;;;;;;;;;;16.70;59.00;;;;;;4224018;28;19981;-40
2020/12/31 08:07:16;;;;;;;;;;;16.80;58.70;;;;;;4225016;28;19923;-40
2020/12/31 08:09:37;;;;;;;;;;;16.90;58.40;;;;;;4222936;28;19928;-40
2020/12/31 08:11:59;;;;;;;;;;;16.90;58.30;;;;;;4222534;28;19928;-40
2020/12/31 08:14:20;;;;;;;;;;;16.90;58.40;;;;;;4227474;28;19920;-40
2020/12/31 08:16:41;;;;;;;;;;;16.90;58.10;;;;;;4221887;28;20294;-40
2020/12/31 08:19:01;;;;;;;;;;;16.90;58.10;;;;;;4229522;28;20018;-40
2020/12/31 08:21:23;;;;;;;;;;;16.80;58.30;;;;;;4229973;28;19943;-45
2020/12/31 08:23:45;;;;;;;;;;;16.70;58.60;;;;;;4216640;28;20298;-40
2020/12/31 08:26:08;;;;;;;;;;;16.50;58.80;;;;;;4229701;28;19969;-40
2020/12/31 08:28:30;;;;;;;;;;;16.50;58.80;;;;;;4230254;28;20012;-40
2020/12/31 08:30:51;;;;;;;;;;;16.70;58.30;;;;;;4229002;28;20334;-40
2020/12/31 08:33:12;;;;;;;;;;;16.80;57.70;;;;;;4213331;28;19926;-39
2020/12/31 08:35:37;;;;;;;;;;;16.90;57.30;;;;;;4229474;28;19920;-40
2020/12/31 08:37:59;;;;;;;;;;;16.90;57.00;;;;;;4218414;28;20526;-40
2020/12/31 08:40:20;;;;;;;;;;;16.90;57.20;;;;;;4229910;28;20006;-40
2020/12/31 08:42:42;;;;;;;;;;;16.80;57.30;;;;;;4228635;28;19973;-40
2020/12/31 08:45:04;;;;;;;;;;;16.70;57.60;;;;;;4229866;28;19929;-40
2020/12/31 08:47:25;;;;;;;;;;;16.60;57.60;;;;;;4229185;28;19969;-40
2020/12/31 08:49:49;;;;;;;;;;;16.50;57.90;;;;;;4229199;28;19923;-40
2020/12/31 08:52:10;;;;;;;;;;;16.30;58.00;;;;;;4229158;28;20396;-40
2020/12/31 08:54:30;;;;;;;;;;;16.20;58.30;;;;;;4222606;28;19927;-40
2020/12/31 08:56:51;;;;;;;;;;;16.20;58.50;;;;;;4231845;28;19979;-40
2020/12/31 08:59:13;;;;;;;;;;;16.30;58.30;;;;;;4232546;28;20324;-40
2020/12/31 09:01:34;;;;;;;;;;;16.40;57.90;;;;;;4233170;28;19962;-39
2020/12/31 09:04:06;;;;;;;;;;;16.50;57.70;;;;;;4232619;27;19923;-40
2020/12/31 09:06:26;;;;;;;;;;;16.50;57.50;;;;;;4232152;27;19931;-40
2020/12/31 09:08:48;;;;;;;;;;;16.40;57.70;;;;;;4232257;28;20300;-41
2020/12/31 09:11:09;;;;;;;;;;;16.30;58.00;;;;;;4232582;28;19923;-40
2020/12/31 09:13:33;;;;;;;;;;;16.20;58.20;;;;;;4232590;28;20357;-40
2020/12/31 09:16:12;;;;;;;;;;;16.20;58.60;;;;;;4232555;28;19927;-40
2020/12/31 09:18:34;;;;;;;;;;;16.00;58.90;;;;;;4227748;28;19935;-43
2020/12/31 09:20:57;;;;;;;;;;;16.00;58.90;;;;;;4232651;28;20001;-41
2020/12/31 09:23:18;;;;;;;;;;;16.20;58.50;;;;;;4232702;28;20347;-40
2020/12/31 09:25:48;;;;;;;;;;;16.40;57.80;;;;;;4232633;27;20370;-40
2020/12/31 09:28:09;;;;;;;;;;;16.60;57.50;;;;;;4215735;28;19942;-40
2020/12/31 09:30:31;;;;;;;;;;;16.60;57.40;;;;;;4215759;28;19924;-40
2020/12/31 09:32:51;;;;;;;;;;;16.70;57.40;;;;;;4215616;28;19928;-40
2020/12/31 09:35:14;;;;;;;;;;;16.80;57.00;;;;;;4215643;28;19928;-40
2020/12/31 09:37:47;;;;;;;;;;;16.80;56.70;;;;;;4215708;28;19920;-40
2020/12/31 09:40:08;;;;;;;;;;;16.80;56.70;;;;;;4215571;28;20026;-40
2020/12/31 09:42:29;;;;;;;;;;;16.70;56.90;;;;;;4215535;28;19920;-40
2020/12/31 09:44:50;;;;;;;;;;;16.60;57.10;;;;;;4215439;28;20298;-40
2020/12/31 09:47:11;;;;;;;;;;;16.50;57.40;;;;;;4229333;28;19923;-40
2020/12/31 09:49:32;;;;;;;;;;;16.40;57.60;;;;;;4232112;28;19930;-41
2020/12/31 09:51:53;;;;;;;;;;;16.40;57.70;;;;;;4232131;28;19924;-41
2020/12/31 09:54:14;;;;;;;;;;;16.40;57.80;;;;;;4232271;28;19923;-40
2020/12/31 09:56:35;;;;;;;;;;;16.30;58.00;;;;;;4232192;28;20000;-40
2020/12/31 09:58:56;;;;;;;;;;;16.20;58.30;;;;;;4231849;27;20000;-40
2020/12/31 10:01:17;;;;;;;;;;;16.10;58.40;;;;;;4231960;28;20022;-40
2020/12/31 10:03:37;;;;;;;;;;;16.10;58.60;;;;;;4231370;28;20385;-40
2020/12/31 10:05:58;;;;;;;;;;;16.00;58.70;;;;;;4231944;28;19928;-40
2020/12/31 10:08:20;;;;;;;;;;;16.00;58.80;;;;;;4232032;28;19944;-40
2020/12/31 10:10:41;;;;;;;;;;;16.10;58.90;;;;;;4231712;28;19930;-40
2020/12/31 10:13:02;;;;;;;;;;;16.20;58.40;;;;;;4231902;28;20362;-40
2020/12/31 10:15:25;;;;;;;;;;;16.50;57.80;;;;;;4231272;27;19927;-40
2020/12/31 10:17:46;;;;;;;;;;;16.60;57.20;;;;;;4231897;28;19928;-41
2020/12/31 10:20:06;;;;;;;;;;;16.70;57.10;;;;;;4231685;28;19919;-47
2020/12/31 10:22:27;;;;;;;;;;;16.60;57.10;;;;;;4214885;28;19920;-41
2020/12/31 10:24:49;;;;;;;;;;;16.60;57.10;;;;;;4214802;28;20022;-40
2020/12/31 10:27:09;;;;;;;;;;;16.60;57.30;;;;;;4229116;28;20285;-41
2020/12/31 10:29:30;;;;;;;;;;;16.50;57.50;;;;;;4231617;28;20397;-41
2020/12/31 10:31:51;;;;;;;;;;;16.50;57.70;;;;;;4231585;28;19930;-40
2020/12/31 10:34:13;;;;;;;;;;;16.50;57.60;;;;;;4231698;28;19946;-40
2020/12/31 10:36:34;;;;;;;;;;;16.60;57.60;;;;;;4231050;28;20026;-41
2020/12/31 10:38:56;;;;;;;;;;;16.60;57.40;;;;;;4214547;28;19951;-40
2020/12/31 10:41:17;;;;;;;;;;;16.60;57.50;;;;;;4218041;28;20273;-40
2020/12/31 10:43:38;;;;;;;;;;;16.50;57.60;;;;;;4231726;28;20390;-41
2020/12/31 10:46:02;;;;;;;;;;;16.40;58.00;;;;;;4230957;28;19920;-42
2020/12/31 10:48:23;;;;;;;;;;;16.40;58.10;;;;;;4229512;28;19920;-41
2020/12/31 10:50:44;;;;;;;;;;;16.30;58.20;;;;;;4230181;28;20612;-41
2020/12/31 10:53:04;;;;;;;;;;;16.30;58.20;;;;;;4230954;27;20380;-41
2020/12/31 10:55:25;;;;;;;;;;;16.50;57.90;;;;;;4229919;28;20027;-41
2020/12/31 10:57:47;;;;;;;;;;;16.50;57.50;;;;;;4231045;28;19938;-41
2020/12/31 11:00:08;;;;;;;;;;;16.60;57.30;;;;;;4230670;28;20312;-41
2020/12/31 11:02:29;;;;;;;;;;;16.50;57.20;;;;;;4231208;28;20440;-40
2020/12/31 11:04:50;;;;;;;;;;;16.40;57.30;;;;;;4231349;28;19923;-42
2020/12/31 11:07:11;;;;;;;;;;;16.30;57.40;;;;;;4230048;28;19924;-41
2020/12/31 11:09:32;;;;;;;;;;;16.30;57.70;;;;;;4231003;28;20442;-41
2020/12/31 11:11:53;;;;;;;;;;;16.20;58.00;;;;;;4230627;28;19919;-40
2020/12/31 11:14:14;;;;;;;;;;;16.20;57.60;;;;;;4227771;28;19919;-40
2020/12/31 11:16:35;;;;;;;;;;;16.10;57.50;;;;;;4229877;28;20006;-40
2020/12/31 11:18:56;;;;;;;;;;;16.00;57.70;;;;;;4231272;28;19920;-41
2020/12/31 11:21:18;;;;;;;;;;;15.90;57.90;;;;;;4230427;28;19931;-41
2020/12/31 11:23:39;;;;;;;;;;;15.90;58.10;;;;;;4230989;28;20023;-40
2020/12/31 11:26:00;;;;;;;;;;;15.80;58.20;;;;;;4229857;28;19931;-40
2020/12/31 11:28:21;;;;;;;;;;;15.70;58.30;;;;;;4229041;28;19927;-40
2020/12/31 11:30:43;;;;;;;;;;;15.50;58.40;;;;;;4230256;28;19919;-40
2020/12/31 11:33:05;;;;;;;;;;;15.50;58.70;;;;;;4228243;28;19924;-40
2020/12/31 11:35:25;;;;;;;;;;;15.40;58.70;;;;;;4229735;28;19982;-40
2020/12/31 11:37:46;;;;;;;;;;;15.30;58.90;;;;;;4213866;28;19963;-40
2020/12/31 11:40:07;;;;;;;;;;;15.20;59.00;;;;;;4222248;28;19959;-40
2020/12/31 11:42:32;;;;;;;;;;;15.20;59.40;;;;;;4229702;28;19997;-40
2020/12/31 11:44:53;;;;;;;;;;;15.20;59.60;;;;;;4229544;28;19923;-40
2020/12/31 11:47:14;;;;;;;;;;;15.40;59.30;;;;;;4230517;28;19930;-40
2020/12/31 11:49:35;;;;;;;;;;;15.70;58.50;;;;;;4229953;28;19923;-40
2020/12/31 11:51:57;;;;;;;;;;;16.00;57.50;;;;;;4229864;28;19923;-40
2020/12/31 11:54:17;;;;;;;;;;;16.30;56.80;;;;;;4225076;28;19928;-40
2020/12/31 11:56:39;;;;;;;;;;;16.30;56.70;;;;;;4229867;28;19927;-40
2020/12/31 11:59:01;;;;;;;;;;;16.30;57.00;;;;;;4230042;28;19924;-41
2020/12/31 12:01:21;;;;;;;;;;;16.30;57.00;;;;;;4230144;28;19923;-41
2020/12/31 12:03:44;;;;;;;;;;;16.20;57.10;;;;;;4229963;28;19923;-40
2020/12/31 12:06:05;;;;;;;;;;;16.10;57.20;;;;;;4229973;28;19951;-40
2020/12/31 12:08:28;;;;;;;;;;;16.00;57.50;;;;;;4229961;28;19931;-41
2020/12/31 12:10:49;;;;;;;;;;;15.80;57.70;;;;;;4229761;28;19923;-40
2020/12/31 12:13:10;;;;;;;;;;;15.70;57.90;;;;;;4229815;28;19931;-40
2020/12/31 12:15:31;;;;;;;;;;;15.60;58.10;;;;;;4229966;28;19924;-40
2020/12/31 12:17:51;;;;;;;;;;;15.60;58.10;;;;;;4229763;28;20010;-40
2020/12/31 12:20:13;;;;;;;;;;;15.60;57.80;;;;;;4229483;28;19920;-40
2020/12/31 12:22:36;;;;;;;;;;;15.60;57.70;;;;;;4230017;28;20387;-40
2020/12/31 12:24:57;;;;;;;;;;;15.60;57.70;;;;;;4229633;28;19923;-40
2020/12/31 12:27:18;;;;;;;;;;;15.60;57.80;;;;;;4229281;28;20335;-40
2020/12/31 12:29:39;;;;;;;;;;;15.50;58.00;;;;;;4229293;28;20130;-40
2020/12/31 12:32:00;;;;;;;;;;;15.50;58.10;;;;;;4228333;28;20367;-40
2020/12/31 12:34:20;;;;;;;;;;;15.50;58.40;;;;;;4229538;28;19924;-40
2020/12/31 12:36:43;;;;;;;;;;;15.70;57.90;;;;;;4228734;28;19924;-40
2020/12/31 12:39:04;;;;;;;;;;;16.00;57.20;;;;;;4228158;28;19920;-40
2020/12/31 12:41:25;;;;;;;;;;;16.10;56.80;;;;;;4229513;28;19969;-40
2020/12/31 12:43:46;;;;;;;;;;;16.10;56.50;;;;;;4230017;28;20281;-40
2020/12/31 12:46:06;;;;;;;;;;;16.10;56.70;;;;;;4228830;28;19923;-42
2020/12/31 12:48:27;;;;;;;;;;;16.00;57.00;;;;;;4229113;28;19962;-42
2020/12/31 12:50:48;;;;;;;;;;;15.90;57.20;;;;;;4227247;28;19947;-40
2020/12/31 12:53:10;;;;;;;;;;;15.80;57.50;;;;;;4224510;28;20297;-41
2020/12/31 12:55:31;;;;;;;;;;;15.80;57.80;;;;;;4229543;28;20026;-40
2020/12/31 12:57:52;;;;;;;;;;;15.60;58.00;;;;;;4226017;28;19923;-43
2020/12/31 13:00:14;;;;;;;;;;;15.60;58.20;;;;;;4229416;28;19931;-40
2020/12/31 13:02:35;;;;;;;;;;;15.50;58.40;;;;;;4229366;28;20577;-40
2020/12/31 13:04:56;;;;;;;;;;;15.40;58.70;;;;;;4229056;28;19977;-40
2020/12/31 13:07:16;;;;;;;;;;;15.30;58.80;;;;;;4229731;28;20633;-40
2020/12/31 13:09:38;;;;;;;;;;;15.20;59.20;;;;;;4229031;28;20003;-40
2020/12/31 13:12:13;;;;;;;;;;;15.30;59.00;;;;;;4229150;28;19930;-40
2020/12/31 13:14:34;;;;;;;;;;;15.50;58.60;;;;;;4229170;28;19920;-41
2020/12/31 13:16:55;;;;;;;;;;;15.60;58.20;;;;;;4229152;28;19920;-41
2020/12/31 13:19:16;;;;;;;;;;;15.60;58.10;;;;;;4228613;28;19928;-40
2020/12/31 13:21:38;;;;;;;;;;;15.60;58.00;;;;;;4229708;28;19923;-40
2020/12/31 13:23:59;;;;;;;;;;;15.60;58.20;;;;;;4229462;28;19928;-41
2020/12/31 13:26:20;;;;;;;;;;;15.50;58.50;;;;;;4228636;28;19946;-41
2020/12/31 13:28:41;;;;;;;;;;;15.40;58.70;;;;;;4229111;28;20378;-41
2020/12/31 13:31:02;;;;;;;;;;;15.30;59.00;;;;;;4228264;28;19927;-41
2020/12/31 13:33:23;;;;;;;;;;;15.20;59.30;;;;;;4222339;28;19924;-41
2020/12/31 13:35:44;;;;;;;;;;;15.30;59.40;;;;;;4229120;28;19924;-40
2020/12/31 13:38:05;;;;;;;;;;;15.50;58.80;;;;;;4219001;28;20016;-40
2020/12/31 13:40:25;;;;;;;;;;;15.70;58.40;;;;;;4231924;28;19919;-40
2020/12/31 13:42:46;;;;;;;;;;;15.80;58.20;;;;;;4231814;28;19924;-39
2020/12/31 13:45:08;;;;;;;;;;;15.80;58.20;;;;;;4232481;28;19920;-39